createdAt,value
2022-11-21T00:01:05.167Z,22.05
2022-11-21T00:03:31.871Z,24.83
2022-11-21T00:05:58.575Z,22.02
2022-11-21T00:08:25.172Z,22.30
2022-11-21T00:10:51.829Z,22.67
2022-11-21T00:13:20.421Z,23.30
2022-11-21T00:15:47.875Z,21.77
2022-11-21T00:18:14.908Z,22.00
2022-11-21T00:20:42.491Z,22.67
2022-11-21T00:23:09.840Z,22.52
2022-11-21T00:25:37.124Z,21.02
2022-11-21T00:28:04.550Z,24.23
2022-11-21T00:30:31.384Z,24.63
2022-11-21T00:33:01.109Z,25.00
2022-11-21T00:35:28.072Z,22.52
2022-11-21T00:37:54.940Z,23.95
2022-11-21T00:40:21.599Z,22.92
2022-11-21T00:42:48.227Z,24.98
2022-11-21T00:45:17.314Z,25.75
2022-11-21T00:47:46.410Z,20.48
2022-11-21T00:50:13.276Z,23.63
2022-11-21T00:52:39.926Z,21.88
2022-11-21T00:55:07.104Z,26.27
2022-11-21T00:57:33.782Z,23.73
2022-11-21T01:00:00.415Z,21.98
2022-11-21T01:02:27.050Z,23.15
2022-11-21T01:04:53.695Z,22.73
2022-11-21T01:07:20.473Z,23.92
2022-11-21T01:09:47.220Z,26.60
2022-11-21T01:12:13.908Z,23.08
2022-11-21T01:14:40.562Z,23.58
2022-11-21T01:17:07.228Z,23.70
2022-11-21T01:19:34.022Z,29.15
2022-11-21T01:22:00.708Z,26.20
2022-11-21T01:24:27.594Z,29.90
2022-11-21T01:26:54.837Z,25.23
2022-11-21T01:29:21.839Z,26.77
2022-11-21T01:31:48.583Z,25.50
2022-11-21T01:34:15.396Z,27.48
2022-11-21T01:36:42.237Z,25.02
2022-11-21T01:39:10.873Z,27.60
2022-11-21T01:41:42.406Z,29.35
2022-11-21T01:44:21.035Z,26.98
2022-11-21T01:46:48.466Z,26.75
2022-11-21T01:49:21.129Z,29.15
2022-11-21T01:51:58.742Z,30.65
2022-11-21T01:54:34.491Z,27.27
2022-11-21T01:57:10.853Z,25.60
2022-11-21T01:59:41.601Z,23.55
2022-11-21T02:02:10.584Z,29.45
2022-11-21T02:04:39.606Z,26.75
2022-11-21T02:07:07.063Z,27.63
2022-11-21T02:09:35.600Z,30.45
2022-11-21T02:12:07.011Z,29.58
2022-11-21T02:14:35.357Z,29.15
2022-11-21T02:17:05.582Z,32.28
2022-11-21T02:19:54.044Z,27.52
2022-11-21T02:22:28.216Z,30.73
2022-11-21T02:25:02.104Z,26.15
2022-11-21T02:27:28.848Z,27.50
2022-11-21T02:29:55.677Z,27.63
2022-11-21T02:32:24.321Z,28.35
2022-11-21T02:34:51.338Z,29.77
2022-11-21T02:37:18.665Z,28.95
2022-11-21T02:39:46.278Z,25.50
2022-11-21T02:42:17.896Z,27.25
2022-11-21T02:45:13.865Z,33.85
2022-11-21T02:47:40.675Z,25.52
2022-11-21T02:50:12.676Z,28.10
2022-11-21T02:52:39.337Z,26.85
2022-11-21T02:55:06.371Z,26.58
2022-11-21T02:57:33.074Z,28.05
2022-11-21T02:59:59.830Z,24.48
2022-11-21T03:02:26.549Z,24.48
2022-11-21T03:04:53.203Z,26.52
2022-11-21T03:07:19.897Z,25.70
2022-11-21T03:09:46.589Z,23.77
2022-11-21T03:12:13.279Z,23.27
2022-11-21T03:14:39.986Z,24.45
2022-11-21T03:17:06.839Z,24.17
2022-11-21T03:19:33.554Z,24.67
2022-11-21T03:22:00.223Z,24.38
2022-11-21T03:24:26.992Z,23.55
2022-11-21T03:26:53.738Z,23.95
2022-11-21T03:29:20.391Z,26.60
2022-11-21T03:31:47.086Z,27.20
2022-11-21T03:34:13.784Z,23.55
2022-11-21T03:36:40.399Z,20.13
2022-11-21T03:39:07.164Z,22.42
2022-11-21T03:41:33.807Z,23.17
2022-11-21T03:44:02.697Z,20.70
2022-11-21T03:46:30.684Z,21.92
2022-11-21T03:48:57.471Z,21.08
2022-11-21T03:51:24.565Z,21.85
2022-11-21T03:53:51.408Z,23.20
2022-11-21T03:56:18.412Z,25.67
2022-11-21T03:58:45.243Z,23.67
2022-11-21T04:01:13.698Z,22.15
2022-11-21T04:03:41.514Z,21.60
2022-11-21T04:06:09.002Z,22.40
2022-11-21T04:08:35.998Z,24.80
2022-11-21T04:11:02.801Z,21.52
2022-11-21T04:13:29.675Z,22.20
2022-11-21T04:15:56.388Z,24.65
2022-11-21T04:18:23.030Z,24.77
2022-11-21T04:20:49.810Z,20.58
2022-11-21T04:23:16.532Z,25.00
2022-11-21T04:25:43.159Z,25.50
2022-11-21T04:28:13.532Z,25.95
2022-11-21T04:30:40.125Z,21.00
2022-11-21T04:33:07.262Z,24.27
2022-11-21T04:35:33.954Z,22.27
2022-11-21T04:38:00.576Z,19.48
2022-11-21T04:40:27.245Z,24.52
2022-11-21T04:42:54.005Z,26.00
2022-11-21T04:45:20.682Z,21.52
2022-11-21T04:47:47.569Z,20.15
2022-11-21T04:50:15.685Z,25.05
2022-11-21T04:52:42.737Z,21.75
2022-11-21T04:55:09.695Z,24.55
2022-11-21T04:57:36.379Z,23.20
2022-11-21T05:00:03.732Z,23.70
2022-11-21T05:02:30.465Z,26.40
2022-11-21T05:04:57.121Z,23.27
2022-11-21T05:07:23.963Z,24.25
2022-11-21T05:09:50.800Z,21.23
2022-11-21T05:12:36.007Z,25.15
2022-11-21T05:15:02.703Z,24.70
2022-11-21T05:17:29.905Z,25.13
2022-11-21T05:19:56.704Z,24.58
2022-11-21T05:22:23.489Z,28.13
2022-11-21T05:24:50.111Z,25.00
2022-11-21T05:27:16.704Z,23.27
2022-11-21T05:29:43.363Z,27.88
2022-11-21T05:32:10.115Z,28.70
2022-11-21T05:34:36.896Z,28.90
2022-11-21T05:37:03.822Z,26.35
2022-11-21T05:39:30.626Z,26.20
2022-11-21T05:42:02.743Z,28.83
2022-11-21T05:44:30.405Z,26.98
2022-11-21T05:46:57.434Z,26.70
2022-11-21T05:49:24.081Z,26.20
2022-11-21T05:51:50.748Z,24.42
2022-11-21T05:54:17.460Z,23.13
2022-11-21T05:56:44.312Z,24.42
2022-11-21T05:59:11.432Z,25.73
2022-11-21T06:01:57.115Z,24.58
2022-11-21T06:04:23.965Z,24.70
2022-11-21T06:06:50.670Z,23.77
2022-11-21T06:09:17.335Z,25.48
2022-11-21T06:11:44.025Z,25.55
2022-11-21T06:14:10.757Z,26.63
2022-11-21T06:16:37.439Z,27.45
2022-11-21T06:19:04.220Z,27.92
2022-11-21T06:21:31.006Z,25.52
2022-11-21T06:23:59.210Z,23.92
2022-11-21T06:26:44.557Z,23.27
2022-11-21T06:29:12.188Z,22.88
2022-11-21T06:31:39.081Z,27.17
2022-11-21T06:34:05.744Z,24.38
2022-11-21T06:36:32.423Z,21.88
2022-11-21T06:38:59.137Z,21.42
2022-11-21T06:41:31.002Z,22.88
2022-11-21T06:44:03.612Z,21.13
2022-11-21T06:46:30.284Z,22.00
2022-11-21T06:48:56.911Z,23.42
2022-11-21T06:51:24.874Z,22.65
2022-11-21T06:53:57.093Z,25.08
2022-11-21T06:56:25.963Z,25.50
2022-11-21T06:58:53.369Z,23.83
2022-11-21T07:01:20.276Z,24.45
2022-11-21T07:03:47.102Z,27.50
2022-11-21T07:06:13.868Z,28.48
2022-11-21T07:08:41.239Z,28.63
2022-11-21T07:11:28.522Z,28.38
2022-11-21T07:13:55.425Z,27.95
2022-11-21T07:16:22.257Z,29.50
2022-11-21T07:18:48.915Z,26.50
2022-11-21T07:21:15.570Z,24.67
2022-11-21T07:23:42.290Z,27.02
2022-11-21T07:26:10.398Z,27.90
2022-11-21T07:28:37.170Z,25.65
2022-11-21T07:31:08.485Z,24.63
2022-11-21T07:33:37.600Z,26.35
2022-11-21T07:36:04.508Z,24.30
2022-11-21T07:38:31.171Z,24.77
2022-11-21T07:40:57.902Z,24.85
2022-11-21T07:43:24.654Z,23.98
2022-11-21T07:45:51.378Z,23.27
2022-11-21T07:48:18.107Z,24.52
2022-11-21T07:50:44.901Z,22.77
2022-11-21T07:53:11.920Z,23.55
2022-11-21T07:55:40.866Z,24.17
2022-11-21T07:58:13.000Z,22.67
2022-11-21T08:00:42.871Z,21.50
2022-11-21T08:03:12.307Z,23.63
2022-11-21T08:05:41.403Z,24.42
2022-11-21T08:08:08.138Z,22.95
2022-11-21T08:10:38.527Z,23.30
2022-11-21T08:13:05.810Z,25.80
2022-11-21T08:15:32.458Z,20.90
2022-11-21T08:17:59.226Z,21.45
2022-11-21T08:20:26.186Z,21.80
2022-11-21T08:22:52.935Z,22.40
2022-11-21T08:25:19.714Z,23.90
2022-11-21T08:27:46.450Z,20.48
2022-11-21T08:30:13.840Z,20.52
2022-11-21T08:32:41.029Z,22.10
2022-11-21T08:35:08.493Z,21.38
2022-11-21T08:37:35.144Z,25.40
2022-11-21T08:40:02.517Z,28.20
2022-11-21T08:42:29.096Z,20.27
2022-11-21T08:44:55.856Z,20.13
2022-11-21T08:47:22.624Z,25.00
2022-11-21T08:49:49.360Z,27.33
2022-11-21T08:52:19.048Z,24.52
2022-11-21T08:54:45.882Z,26.55
2022-11-21T08:57:12.906Z,26.33
2022-11-21T08:59:39.639Z,25.92
2022-11-21T09:02:06.947Z,22.60
2022-11-21T09:04:33.738Z,23.45
2022-11-21T09:07:02.071Z,24.50
2022-11-21T09:09:28.915Z,22.95
2022-11-21T09:11:55.704Z,22.20
2022-11-21T09:14:41.291Z,22.17
2022-11-21T09:17:31.487Z,23.55
2022-11-21T09:19:58.289Z,21.27
2022-11-21T09:22:28.269Z,19.58
2022-11-21T09:24:55.034Z,22.00
2022-11-21T09:27:21.911Z,22.00
2022-11-21T09:29:53.812Z,23.35
2022-11-21T09:32:21.087Z,20.77
2022-11-21T09:34:47.815Z,23.00
2022-11-21T09:37:14.797Z,18.80
2022-11-21T09:39:41.564Z,18.67
2022-11-21T09:42:38.764Z,17.77
2022-11-21T09:45:27.628Z,22.45
2022-11-21T09:48:01.661Z,18.70
2022-11-21T09:51:03.413Z,19.65
2022-11-21T09:53:56.116Z,19.85
2022-11-21T09:56:23.907Z,23.48
2022-11-21T09:58:56.611Z,19.15
2022-11-21T10:01:23.447Z,22.63
2022-11-21T10:03:52.422Z,19.45
2022-11-21T10:06:31.857Z,21.95
2022-11-21T10:09:09.471Z,20.13
2022-11-21T10:12:00.446Z,18.73
2022-11-21T10:14:52.082Z,19.27
2022-11-21T10:17:38.991Z,18.27
2022-11-21T10:20:11.432Z,16.45
2022-11-21T10:22:45.120Z,18.48
2022-11-21T10:25:37.408Z,16.27
2022-11-21T10:28:32.214Z,20.35
2022-11-21T10:30:59.427Z,21.23
2022-11-21T10:33:34.350Z,22.55
2022-11-21T10:36:24.060Z,21.40
2022-11-21T10:38:52.191Z,22.17
2022-11-21T10:41:50.695Z,20.40
2022-11-21T10:44:45.541Z,21.67
2022-11-21T10:47:33.533Z,27.75
2022-11-21T10:50:09.343Z,26.27
2022-11-21T10:52:44.412Z,24.17
2022-11-21T10:55:13.382Z,24.17
2022-11-21T10:57:47.967Z,21.00
2022-11-21T11:00:15.045Z,17.50
2022-11-21T11:02:43.546Z,17.25
2022-11-21T11:05:20.637Z,16.50
2022-11-21T11:08:02.365Z,15.25
2022-11-21T11:10:29.956Z,16.67
2022-11-21T11:16:22.842Z,16.60
2022-11-21T11:19:00.434Z,13.50
2022-11-21T11:21:28.692Z,11.63
2022-11-21T11:24:06.948Z,12.88
2022-11-21T11:26:33.782Z,12.68
2022-11-21T11:29:15.787Z,8.88
2022-11-21T11:31:56.823Z,11.45
2022-11-21T11:34:26.336Z,9.88
2022-11-21T11:37:04.172Z,8.93
2022-11-21T11:39:37.637Z,10.40
2022-11-21T11:42:22.591Z,10.30
2022-11-21T11:45:34.915Z,7.38
2022-11-21T11:48:10.684Z,9.57
2022-11-21T11:50:48.662Z,9.73
2022-11-21T11:53:41.395Z,8.32
2022-11-21T11:56:38.499Z,7.88
2022-11-21T11:59:26.131Z,7.60
2022-11-21T12:02:18.908Z,8.43
2022-11-21T12:05:05.604Z,7.20
2022-11-21T12:10:25.108Z,7.25
2022-11-21T12:13:13.194Z,7.95
2022-11-21T12:15:51.109Z,7.18
2022-11-21T12:18:20.977Z,5.57
2022-11-21T12:21:02.902Z,7.72
2022-11-21T12:23:35.721Z,7.60
2022-11-21T12:26:20.452Z,7.28
2022-11-21T12:29:11.548Z,8.48
2022-11-21T12:31:40.833Z,8.20
2022-11-21T12:34:33.990Z,8.45
2022-11-21T12:37:07.842Z,7.65
2022-11-21T12:39:44.395Z,6.63
2022-11-21T12:42:49.490Z,7.40
2022-11-21T12:45:21.927Z,6.72
2022-11-21T12:48:38.516Z,7.72
2022-11-21T12:51:42.738Z,8.35
2022-11-21T12:54:38.809Z,6.70
2022-11-21T12:57:13.267Z,5.95
2022-11-21T13:00:01.874Z,6.28
2022-11-21T16:48:47.119Z,5.80
2022-11-21T16:51:22.429Z,6.53
2022-11-21T16:56:16.734Z,5.60
2022-11-21T16:58:43.533Z,4.85
2022-11-21T17:01:14.513Z,5.80
2022-11-21T17:03:43.065Z,5.47
2022-11-21T17:06:10.787Z,4.85
2022-11-21T17:08:37.970Z,5.03
2022-11-21T17:11:22.714Z,6.47
2022-11-21T17:13:51.054Z,4.90
2022-11-21T17:16:19.916Z,3.00
2022-11-21T17:18:47.131Z,5.57
2022-11-21T17:21:15.818Z,7.20
2022-11-21T17:23:44.419Z,5.53
2022-11-21T17:26:13.464Z,8.05
2022-11-21T17:28:45.288Z,5.70
2022-11-21T17:31:15.082Z,4.38
2022-11-21T17:33:42.317Z,6.20
2022-11-21T17:36:13.292Z,5.88
2022-11-21T17:38:40.325Z,5.60
2022-11-21T17:41:09.826Z,10.48
2022-11-21T17:43:36.556Z,4.22
2022-11-21T17:46:21.064Z,6.88
2022-11-21T17:48:55.052Z,5.47
2022-11-21T17:51:26.094Z,5.97
2022-11-21T17:53:53.107Z,5.15
2022-11-21T17:56:24.920Z,6.68
2022-11-21T17:58:52.264Z,6.78
2022-11-21T18:01:19.976Z,7.05
2022-11-21T18:03:48.524Z,6.47
2022-11-21T18:06:16.662Z,7.35
2022-11-21T18:08:45.687Z,7.40
2022-11-21T18:11:14.878Z,4.90
2022-11-21T18:13:42.056Z,5.72
2022-11-21T18:16:11.605Z,4.45
2022-11-21T18:18:38.723Z,7.15
2022-11-21T18:21:14.479Z,6.72
2022-11-21T18:23:41.783Z,4.88
2022-11-21T18:26:12.141Z,6.90
2022-11-21T18:28:39.092Z,4.95
2022-11-21T18:31:10.798Z,7.93
2022-11-21T18:33:38.278Z,6.03
2022-11-21T18:36:06.774Z,7.13
2022-11-21T18:38:54.976Z,7.90
2022-11-21T18:41:23.977Z,6.72
2022-11-21T18:43:58.979Z,7.25
2022-11-21T18:46:27.651Z,5.85
2022-11-21T18:49:05.173Z,7.20
2022-11-21T18:51:33.102Z,6.30
2022-11-21T18:54:07.102Z,7.82
2022-11-21T18:56:34.732Z,5.90
2022-11-21T18:59:03.543Z,7.10
2022-11-21T19:01:31.947Z,5.65
2022-11-21T19:03:59.163Z,5.28
2022-11-21T19:06:27.165Z,5.82
2022-11-21T19:08:55.789Z,5.97
2022-11-21T19:11:24.696Z,4.50
2022-11-21T19:13:52.217Z,5.90
2022-11-21T19:16:20.714Z,5.43
2022-11-21T19:19:05.479Z,7.22
2022-11-21T19:21:39.226Z,11.00
2022-11-21T19:24:16.216Z,11.55
2022-11-21T19:26:43.422Z,10.32
2022-11-21T19:29:10.637Z,11.43
2022-11-21T19:31:44.767Z,10.27
2022-11-21T19:34:13.231Z,10.55
2022-11-21T19:36:40.129Z,14.20
2022-11-21T19:39:07.133Z,11.23
2022-11-21T19:41:33.827Z,20.20
2022-11-21T19:44:01.523Z,24.33
2022-11-21T19:46:33.216Z,12.98
2022-11-21T19:49:00.721Z,22.05
2022-11-21T19:51:35.716Z,14.32
2022-11-21T19:54:03.738Z,24.98
2022-11-21T19:56:30.601Z,14.80
2022-11-21T19:58:57.847Z,11.23
2022-11-21T20:01:29.543Z,19.90
2022-11-21T20:03:58.481Z,15.07
2022-11-21T20:06:26.595Z,18.95
2022-11-21T20:08:58.378Z,8.75
2022-11-21T20:11:26.342Z,20.20
2022-11-21T20:13:53.157Z,22.88
2022-11-21T20:16:41.640Z,17.38
2022-11-21T20:19:10.796Z,18.38
2022-11-21T20:21:38.820Z,8.55
2022-11-21T20:24:06.537Z,6.97
2022-11-21T20:26:33.913Z,8.38
2022-11-21T20:29:00.836Z,8.02
2022-11-21T20:31:29.807Z,10.75
2022-11-21T20:34:00.783Z,10.02
2022-11-21T20:36:32.920Z,7.43
2022-11-21T20:39:05.343Z,12.95
2022-11-21T20:41:36.377Z,11.23
2022-11-21T20:46:54.927Z,10.05
2022-11-21T20:49:21.716Z,9.55
2022-11-21T20:54:36.337Z,5.63
2022-11-21T20:57:03.053Z,8.05
2022-11-21T20:59:30.026Z,12.52
2022-11-21T21:01:57.099Z,15.43
2022-11-21T21:04:23.894Z,10.95
2022-11-21T21:06:50.641Z,16.55
2022-11-21T21:09:17.407Z,14.15
2022-11-21T21:11:52.934Z,11.55
2022-11-21T21:14:21.493Z,20.55
2022-11-21T21:16:48.357Z,18.23
2022-11-21T21:19:15.054Z,20.85
2022-11-21T21:21:41.847Z,21.45
2022-11-21T21:24:11.016Z,12.52
2022-11-21T21:26:43.848Z,27.98
2022-11-21T21:29:17.160Z,17.65
2022-11-21T21:31:50.422Z,12.90
2022-11-21T21:34:17.931Z,10.10
2022-11-21T21:36:44.851Z,7.80
2022-11-21T21:39:11.559Z,6.70
2022-11-21T21:41:44.685Z,10.52
2022-11-21T21:44:11.705Z,21.45
2022-11-21T21:46:38.420Z,13.32
2022-11-21T21:49:05.018Z,20.67
2022-11-21T21:51:32.231Z,26.30
2022-11-21T21:53:59.552Z,21.30
2022-11-21T21:56:27.839Z,15.25
2022-11-21T21:58:56.669Z,11.50
2022-11-21T22:01:31.171Z,12.15
2022-11-21T22:03:59.918Z,9.65
2022-11-21T22:06:26.842Z,4.05
2022-11-21T22:08:54.470Z,4.32
2022-11-21T22:11:22.999Z,4.68
2022-11-21T22:13:55.256Z,4.88
2022-11-21T22:16:21.931Z,9.63
2022-11-21T22:18:48.726Z,4.25
2022-11-21T22:21:21.115Z,3.83
2022-11-21T22:24:24.912Z,4.22
2022-11-21T22:26:34.768Z,4.93
2022-11-21T22:29:01.555Z,10.23
2022-11-21T22:31:30.419Z,7.68
2022-11-21T22:33:57.682Z,11.63
2022-11-21T22:36:24.384Z,8.15
2022-11-21T22:38:55.492Z,6.03
2022-11-21T22:41:24.607Z,5.47
2022-11-21T22:43:53.338Z,5.35
2022-11-21T22:46:20.691Z,5.32
2022-11-21T22:48:48.054Z,4.60
2022-11-21T22:51:17.081Z,6.03
2022-11-21T22:53:45.973Z,5.55
2022-11-21T22:56:12.947Z,5.85
2022-11-21T22:58:40.620Z,5.30
2022-11-21T23:01:17.656Z,5.00
2022-11-21T23:03:44.774Z,5.95
2022-11-21T23:06:19.127Z,5.85
2022-11-21T23:08:46.164Z,5.28
2022-11-21T23:11:15.368Z,4.38
2022-11-21T23:13:44.135Z,4.18
2022-11-21T23:16:12.124Z,3.75
2022-11-21T23:18:39.086Z,4.32
2022-11-21T23:21:05.973Z,4.57
2022-11-21T23:23:32.858Z,4.70
2022-11-21T23:25:59.776Z,4.60
2022-11-21T23:28:26.512Z,5.28
2022-11-21T23:30:53.173Z,5.10
2022-11-21T23:33:19.980Z,4.25
2022-11-21T23:35:47.236Z,5.30
2022-11-21T23:38:15.131Z,5.72
2022-11-21T23:40:42.243Z,6.47
2022-11-21T23:43:08.882Z,4.80
2022-11-21T23:45:35.613Z,6.25
2022-11-21T23:48:02.371Z,5.18
2022-11-21T23:50:29.224Z,7.03
2022-11-21T23:52:55.825Z,5.75
2022-11-21T23:55:23.227Z,3.67
2022-11-21T23:57:51.198Z,6.55
